createdAt,value
2019-04-07T00:00:15.568Z,2.07
2019-04-07T00:02:46.448Z,2.03
2019-04-07T00:05:17.295Z,2.30
2019-04-07T00:07:49.551Z,1.90
2019-04-07T00:10:20.369Z,2.17
2019-04-07T00:12:51.157Z,2.00
2019-04-07T00:15:21.967Z,2.00
2019-04-07T00:17:54.308Z,2.03
2019-04-07T00:20:25.852Z,2.03
2019-04-07T00:22:56.363Z,1.90
2019-04-07T00:25:26.874Z,2.27
2019-04-07T00:27:57.769Z,2.73
2019-04-07T00:30:28.349Z,2.23
2019-04-07T00:32:59.464Z,2.30
2019-04-07T00:35:32.628Z,2.33
2019-04-07T00:38:02.808Z,2.60
2019-04-07T00:40:33.839Z,2.57
2019-04-07T00:43:04.558Z,2.50
2019-04-07T00:45:35.546Z,2.40
2019-04-07T00:48:06.840Z,2.47
2019-04-07T00:50:37.357Z,2.60
2019-04-07T00:53:08.861Z,2.43
2019-04-07T00:55:39.688Z,2.60
2019-04-07T00:58:10.179Z,2.93
2019-04-07T01:00:42.431Z,2.53
2019-04-07T01:03:13.685Z,2.63
2019-04-07T01:05:44.226Z,3.00
2019-04-07T01:08:15.489Z,2.33
2019-04-07T01:10:47.014Z,2.60
2019-04-07T01:13:17.529Z,2.83
2019-04-07T01:15:50.861Z,2.37
2019-04-07T01:18:21.397Z,2.40
2019-04-07T01:20:51.969Z,2.70
2019-04-07T01:23:23.493Z,2.37
2019-04-07T01:25:55.279Z,2.50
2019-04-07T01:28:26.550Z,2.53
2019-04-07T01:30:57.931Z,2.87
2019-04-07T01:33:28.899Z,2.93
2019-04-07T01:35:59.822Z,2.70
2019-04-07T01:38:30.688Z,3.20
2019-04-07T01:41:06.517Z,2.77
2019-04-07T01:43:45.477Z,2.50
2019-04-07T01:46:41.504Z,2.97
2019-04-07T01:49:26.023Z,2.50
2019-04-07T01:52:04.245Z,3.40
2019-04-07T01:54:50.405Z,2.80
2019-04-07T01:57:49.332Z,2.60
2019-04-07T02:00:53.794Z,2.73
2019-04-07T02:03:46.564Z,2.30
2019-04-07T02:06:28.289Z,2.50
2019-04-07T02:09:04.428Z,2.70
2019-04-07T02:12:10.414Z,2.37
2019-04-07T02:15:00.002Z,2.37
2019-04-07T02:17:46.955Z,2.50
2019-04-07T02:21:04.349Z,2.30
2019-04-07T02:24:12.862Z,2.43
2019-04-07T02:27:04.002Z,2.43
2019-04-07T02:30:13.037Z,2.77
2019-04-07T02:33:03.535Z,2.80
2019-04-07T02:35:52.953Z,2.73
2019-04-07T02:38:58.424Z,3.30
2019-04-07T02:41:38.092Z,2.77
2019-04-07T02:44:27.228Z,2.40
2019-04-07T02:47:21.224Z,2.73
2019-04-07T02:50:07.114Z,2.93
2019-04-07T02:52:53.437Z,3.10
2019-04-07T02:55:30.340Z,2.67
2019-04-07T02:58:22.866Z,2.73
2019-04-07T03:01:04.036Z,2.87
2019-04-07T03:04:03.253Z,2.80
2019-04-07T03:06:53.559Z,3.30
2019-04-07T03:09:43.952Z,3.20
2019-04-07T03:12:33.100Z,2.63
2019-04-07T03:15:26.868Z,2.80
2019-04-07T03:18:20.544Z,3.33
2019-04-07T03:20:59.533Z,3.27
2019-04-07T03:23:48.666Z,3.47
2019-04-07T03:26:48.428Z,2.90
2019-04-07T03:29:28.155Z,2.60
2019-04-07T03:32:17.048Z,3.30
2019-04-07T03:35:06.195Z,3.07
2019-04-07T03:37:48.163Z,3.03
2019-04-07T03:40:41.233Z,2.80
2019-04-07T03:43:40.226Z,2.50
2019-04-07T03:46:29.733Z,2.47
2019-04-07T03:49:15.104Z,3.40
2019-04-07T03:52:11.849Z,2.90
2019-04-07T03:55:21.353Z,2.90
2019-04-07T03:58:10.642Z,2.90
2019-04-07T04:01:24.076Z,3.00
2019-04-07T04:04:05.497Z,2.90
2019-04-07T04:06:54.730Z,3.00
2019-04-07T04:09:44.013Z,2.97
2019-04-07T04:12:49.897Z,2.53
2019-04-07T04:15:56.816Z,2.73
2019-04-07T04:18:27.305Z,2.60
2019-04-07T04:20:57.846Z,2.93
2019-04-07T04:23:29.071Z,2.90
2019-04-07T04:26:00.817Z,2.97
2019-04-07T04:28:31.673Z,2.60
2019-04-07T04:31:02.217Z,3.30
2019-04-07T04:33:33.081Z,3.27
2019-04-07T04:36:04.337Z,3.17
2019-04-07T04:38:36.439Z,3.53
2019-04-07T04:41:07.037Z,4.30
2019-04-07T04:43:38.199Z,3.53
2019-04-07T04:46:10.955Z,3.30
2019-04-07T04:48:41.365Z,3.17
2019-04-07T04:51:12.045Z,2.90
2019-04-07T04:53:44.116Z,3.27
2019-04-07T04:56:14.720Z,3.13
2019-04-07T04:58:45.706Z,3.40
2019-04-07T05:01:17.482Z,3.23
2019-04-07T05:03:49.267Z,3.17
2019-04-07T05:06:20.988Z,3.20
2019-04-07T05:08:51.982Z,3.57
2019-04-07T05:11:22.892Z,4.00
2019-04-07T05:13:53.428Z,3.10
2019-04-07T05:16:24.092Z,3.30
2019-04-07T05:18:55.708Z,3.17
2019-04-07T05:21:27.340Z,3.43
2019-04-07T05:23:57.846Z,3.50
2019-04-07T05:26:29.150Z,3.70
2019-04-07T05:29:01.410Z,3.73
2019-04-07T05:31:31.819Z,3.57
2019-04-07T05:34:02.837Z,3.60
2019-04-07T05:36:33.424Z,3.20
2019-04-07T05:39:06.518Z,3.30
2019-04-07T05:41:37.229Z,3.20
2019-04-07T05:44:08.855Z,3.50
2019-04-07T05:46:42.469Z,3.30
2019-04-07T05:49:15.129Z,2.50
2019-04-07T05:51:44.988Z,2.80
2019-04-07T05:54:17.362Z,3.30
2019-04-07T05:56:48.305Z,3.43
2019-04-07T05:59:18.858Z,3.30
2019-04-07T06:01:51.896Z,3.00
2019-04-07T06:04:22.229Z,2.90
2019-04-07T06:06:55.310Z,4.13
2019-04-07T06:09:26.475Z,3.50
2019-04-07T06:11:57.684Z,3.20
2019-04-07T06:14:28.795Z,3.63
2019-04-07T06:16:59.983Z,3.87
2019-04-07T06:19:31.503Z,3.23
2019-04-07T06:22:02.343Z,3.07
2019-04-07T06:24:34.311Z,3.40
2019-04-07T06:27:05.599Z,2.80
2019-04-07T06:29:36.922Z,2.90
2019-04-07T06:32:09.816Z,4.10
2019-04-07T06:34:41.859Z,3.80
2019-04-07T06:37:12.270Z,3.17
2019-04-07T06:39:42.811Z,3.73
2019-04-07T06:42:14.285Z,3.07
2019-04-07T06:44:46.236Z,3.10
2019-04-07T06:47:23.765Z,2.80
2019-04-07T06:50:14.354Z,3.23
2019-04-07T06:52:51.964Z,2.93
2019-04-07T06:55:41.706Z,4.27
2019-04-07T06:58:24.315Z,3.97
2019-04-07T07:01:16.688Z,3.50
2019-04-07T07:04:10.882Z,3.43
2019-04-07T07:06:58.940Z,3.40
2019-04-07T07:10:00.967Z,2.73
2019-04-07T07:12:39.877Z,4.57
2019-04-07T07:15:28.365Z,3.67
2019-04-07T07:18:19.964Z,4.07
2019-04-07T07:21:09.991Z,4.80
2019-04-07T07:23:47.634Z,3.70
2019-04-07T07:26:17.096Z,4.10
2019-04-07T07:28:48.288Z,3.30
2019-04-07T07:31:22.927Z,2.80
2019-04-07T07:33:50.852Z,2.60
2019-04-07T07:36:25.341Z,2.93
2019-04-07T07:39:01.751Z,3.70
2019-04-07T07:41:29.093Z,3.77
2019-04-07T07:44:03.180Z,4.10
2019-04-07T07:46:33.308Z,3.97
2019-04-07T07:49:04.235Z,3.60
2019-04-07T07:51:37.717Z,3.60
2019-04-07T07:54:07.243Z,3.40
2019-04-07T07:56:41.382Z,3.10
2019-04-07T07:59:11.076Z,2.70
2019-04-07T08:01:55.565Z,3.13
2019-04-07T08:04:27.651Z,3.20
2019-04-07T08:06:58.986Z,2.90
2019-04-07T08:09:29.662Z,5.07
2019-04-07T08:12:01.616Z,4.73
2019-04-07T08:14:32.616Z,3.63
2019-04-07T08:17:04.463Z,3.87
2019-04-07T08:19:35.067Z,4.33
2019-04-07T08:22:07.919Z,4.40
2019-04-07T08:24:39.275Z,3.40
2019-04-07T08:27:11.488Z,4.83
2019-04-07T08:29:41.992Z,4.67
2019-04-07T08:32:13.283Z,2.80
2019-04-07T08:34:44.920Z,3.57
2019-04-07T08:37:17.920Z,3.20
2019-04-07T08:39:49.692Z,4.03
2019-04-07T08:42:20.803Z,2.70
2019-04-07T08:44:52.747Z,3.63
2019-04-07T08:47:23.468Z,3.57
2019-04-07T08:49:56.876Z,3.83
2019-04-07T08:52:27.198Z,3.97
2019-04-07T08:55:00.701Z,3.23
2019-04-07T08:57:32.413Z,3.00
2019-04-07T09:00:41.719Z,3.60
2019-04-07T09:03:18.936Z,4.23
2019-04-07T09:06:04.040Z,4.33
2019-04-07T09:08:42.748Z,3.30
2019-04-07T09:11:41.569Z,4.07
2019-04-07T09:14:18.514Z,4.30
2019-04-07T09:17:08.263Z,3.67
2019-04-07T09:20:10.547Z,3.97
2019-04-07T09:22:53.815Z,4.00
2019-04-07T09:25:56.232Z,4.53
2019-04-07T09:28:44.319Z,4.10
2019-04-07T09:31:40.088Z,3.93
2019-04-07T09:34:20.630Z,3.37
2019-04-07T09:37:22.088Z,2.93
2019-04-07T09:40:18.554Z,4.60
2019-04-07T09:43:08.439Z,3.50
2019-04-07T09:46:10.357Z,3.70
2019-04-07T09:49:02.029Z,4.60
2019-04-07T09:52:01.218Z,3.90
2019-04-07T09:54:57.332Z,3.67
2019-04-07T09:57:47.590Z,3.50
2019-04-07T10:00:29.905Z,4.63
2019-04-07T10:03:20.869Z,3.30
2019-04-07T10:06:02.485Z,4.27
2019-04-07T10:08:52.212Z,4.93
2019-04-07T10:11:48.784Z,3.90
2019-04-07T10:14:38.754Z,3.50
2019-04-07T10:17:30.761Z,4.80
2019-04-07T10:20:22.046Z,5.97
2019-04-07T10:23:13.041Z,9.17
2019-04-07T10:25:58.675Z,6.17
2019-04-07T10:28:36.715Z,7.00
2019-04-07T10:31:34.995Z,5.80
2019-04-07T10:34:18.300Z,8.40
2019-04-07T10:37:26.563Z,9.60
2019-04-07T10:40:19.569Z,8.70
2019-04-07T10:43:00.271Z,9.17
2019-04-07T10:45:36.616Z,6.63
2019-04-07T10:48:36.511Z,6.03
2019-04-07T10:51:20.536Z,8.27
2019-04-07T10:54:09.036Z,6.77
2019-04-07T10:57:05.010Z,8.10
2019-04-07T10:59:57.877Z,8.07
2019-04-07T11:02:47.979Z,7.13
2019-04-07T11:05:28.770Z,9.47
2019-04-07T11:08:18.184Z,12.80
2019-04-07T11:11:10.959Z,10.43
2019-04-07T11:14:04.689Z,8.20
2019-04-07T11:16:54.936Z,8.47
2019-04-07T11:19:46.299Z,7.33
2019-04-07T11:22:43.001Z,8.37
2019-04-07T11:25:39.568Z,6.43
2019-04-07T11:28:32.271Z,8.67
2019-04-07T11:31:34.265Z,9.10
2019-04-07T11:34:20.776Z,10.87
2019-04-07T11:37:02.213Z,10.65
2019-04-07T11:39:39.822Z,11.18
2019-04-07T11:42:28.443Z,10.55
2019-04-07T11:45:14.933Z,9.00
2019-04-07T11:47:59.075Z,10.20
2019-04-07T11:50:52.226Z,8.43
2019-04-07T11:53:29.461Z,12.30
2019-04-07T11:56:11.281Z,11.40
2019-04-07T11:58:59.553Z,10.80
2019-04-07T12:02:07.397Z,12.33
2019-04-07T12:04:55.414Z,12.40
2019-04-07T12:07:44.586Z,12.83
2019-04-07T12:10:54.818Z,15.80
2019-04-07T12:13:45.784Z,9.70
2019-04-07T12:16:33.800Z,9.80
2019-04-07T12:19:30.972Z,14.40
2019-04-07T12:22:30.645Z,10.32
2019-04-07T12:25:31.337Z,10.98
2019-04-07T12:28:19.090Z,9.30
2019-04-07T12:31:46.652Z,8.90
2019-04-07T12:34:25.359Z,9.18
2019-04-07T12:37:15.632Z,8.63
2019-04-07T12:40:06.469Z,11.25
2019-04-07T12:42:48.262Z,8.13
2019-04-07T12:45:43.847Z,8.03
2019-04-07T12:48:40.913Z,10.20
2019-04-07T12:51:24.269Z,7.67
2019-04-07T12:54:11.791Z,7.03
2019-04-07T12:57:05.325Z,8.00
2019-04-07T13:00:06.008Z,7.47
2019-04-07T13:02:47.478Z,6.67
2019-04-07T13:05:29.777Z,7.15
2019-04-07T13:08:13.251Z,6.12
2019-04-07T13:11:10.795Z,7.50
2019-04-07T13:14:06.134Z,9.15
2019-04-07T13:17:06.103Z,6.75
2019-04-07T13:19:48.966Z,6.85
2019-04-07T13:22:37.769Z,4.42
2019-04-07T13:25:29.273Z,6.05
2019-04-07T13:28:22.795Z,6.55
2019-04-07T13:31:08.128Z,6.40
2019-04-07T13:33:50.183Z,6.33
2019-04-07T13:36:37.729Z,4.53
2019-04-07T13:39:15.252Z,5.87
2019-04-07T13:42:10.611Z,5.55
2019-04-07T13:45:01.426Z,5.30
2019-04-07T13:47:49.720Z,5.42
2019-04-07T13:50:47.768Z,4.95
2019-04-07T13:53:35.656Z,4.03
2019-04-07T13:56:25.484Z,4.62
2019-04-07T13:59:22.628Z,6.05
2019-04-07T14:02:06.380Z,5.78
2019-04-07T14:05:05.254Z,5.85
2019-04-07T14:07:55.414Z,6.22
2019-04-07T14:10:37.141Z,4.65
2019-04-07T14:13:36.587Z,6.20
2019-04-07T14:16:19.647Z,8.13
2019-04-07T14:19:17.782Z,6.83
2019-04-07T14:22:08.969Z,8.38
2019-04-07T14:24:44.247Z,9.53
2019-04-07T14:27:32.747Z,8.57
2019-04-07T14:30:11.347Z,6.83
2019-04-07T14:33:17.885Z,6.43
2019-04-07T14:36:17.238Z,6.93
2019-04-07T14:39:12.886Z,6.33
2019-04-07T14:42:03.956Z,6.25
2019-04-07T14:44:42.240Z,6.22
2019-04-07T14:47:28.863Z,9.43
2019-04-07T14:50:13.242Z,7.85
2019-04-07T14:52:56.717Z,10.80
2019-04-07T14:55:52.596Z,9.00
2019-04-07T14:58:53.682Z,10.23
2019-04-07T15:01:34.842Z,13.18
2019-04-07T15:04:06.440Z,11.93
2019-04-07T15:06:37.460Z,9.75
2019-04-07T15:09:25.541Z,11.88
2019-04-07T15:12:01.627Z,10.57
2019-04-07T15:14:33.829Z,10.25
2019-04-07T15:17:05.822Z,13.33
2019-04-07T15:19:36.500Z,11.33
2019-04-07T15:22:07.977Z,11.90
2019-04-07T15:24:39.473Z,10.07
2019-04-07T15:27:10.073Z,11.00
2019-04-07T15:29:47.041Z,10.77
2019-04-07T15:32:24.521Z,11.47
2019-04-07T15:34:52.900Z,6.80
2019-04-07T15:37:24.945Z,9.33
2019-04-07T15:40:00.959Z,10.00
2019-04-07T15:42:39.105Z,7.60
2019-04-07T15:45:05.053Z,9.50
2019-04-07T15:47:36.018Z,7.70
2019-04-07T15:50:08.484Z,7.33
2019-04-07T15:52:43.746Z,8.50
2019-04-07T15:55:14.735Z,8.40
2019-04-07T15:57:45.854Z,8.07
2019-04-07T16:00:18.455Z,7.47
2019-04-07T16:02:51.193Z,8.17
2019-04-07T16:05:22.695Z,9.60
2019-04-07T16:07:55.149Z,8.07
2019-04-07T16:10:27.030Z,9.00
2019-04-07T16:12:59.488Z,7.03
2019-04-07T16:15:31.821Z,8.77
2019-04-07T16:18:06.379Z,7.67
2019-04-07T16:20:40.270Z,7.43
2019-04-07T16:23:10.288Z,7.70
2019-04-07T16:25:51.095Z,9.13
2019-04-07T16:28:22.889Z,6.87
2019-04-07T16:30:56.328Z,8.30
2019-04-07T16:33:32.561Z,6.50
2019-04-07T16:36:01.780Z,7.20
2019-04-07T16:38:36.514Z,9.53
2019-04-07T16:41:13.776Z,7.97
2019-04-07T16:43:43.696Z,10.33
2019-04-07T16:46:20.365Z,7.63
2019-04-07T16:48:49.103Z,9.60
2019-04-07T16:51:20.036Z,8.47
2019-04-07T16:53:51.018Z,6.87
2019-04-07T16:56:23.496Z,6.90
2019-04-07T16:58:55.408Z,6.93
2019-04-07T17:01:26.649Z,7.90
2019-04-07T17:03:59.377Z,7.67
2019-04-07T17:06:34.716Z,7.20
2019-04-07T17:09:09.455Z,7.00
2019-04-07T17:11:43.264Z,6.60
2019-04-07T17:14:18.334Z,5.83
2019-04-07T17:16:56.880Z,5.23
2019-04-07T17:19:47.798Z,7.63
2019-04-07T17:22:27.628Z,6.47
2019-04-07T17:25:09.931Z,7.50
2019-04-07T17:27:47.613Z,6.83
2019-04-07T17:30:30.328Z,6.53
2019-04-07T17:33:03.227Z,7.73
2019-04-07T17:35:35.559Z,7.80
2019-04-07T17:38:08.540Z,7.90
2019-04-07T17:40:47.225Z,6.37
2019-04-07T17:43:53.247Z,6.57
2019-04-07T17:46:43.006Z,6.80
2019-04-07T17:49:48.258Z,8.23
2019-04-07T17:52:35.744Z,7.50
2019-04-07T17:55:17.619Z,7.17
2019-04-07T17:58:23.161Z,8.17
2019-04-07T18:01:20.597Z,6.90
2019-04-07T18:04:13.972Z,7.47
2019-04-07T18:07:01.943Z,7.07
2019-04-07T18:09:59.534Z,8.73
2019-04-07T18:12:49.917Z,7.73
2019-04-07T18:15:40.540Z,8.03
2019-04-07T18:18:31.497Z,7.57
2019-04-07T18:21:11.729Z,7.23
2019-04-07T18:23:59.815Z,7.67
2019-04-07T18:26:39.635Z,7.83
2019-04-07T18:29:39.447Z,8.13
2019-04-07T18:32:21.962Z,7.70
2019-04-07T18:35:11.133Z,7.70
2019-04-07T18:38:02.615Z,8.77
2019-04-07T18:40:50.904Z,7.17
2019-04-07T18:43:51.986Z,7.77
2019-04-07T18:46:49.975Z,7.97
2019-04-07T18:49:36.530Z,7.23
2019-04-07T18:52:27.545Z,9.30
2019-04-07T18:55:26.174Z,8.23
2019-04-07T18:58:15.333Z,8.03
2019-04-07T19:01:08.783Z,7.97
2019-04-07T19:04:02.462Z,8.57
2019-04-07T19:06:53.584Z,10.23
2019-04-07T19:09:43.681Z,8.60
2019-04-07T19:12:24.776Z,8.10
2019-04-07T19:15:09.206Z,9.67
2019-04-07T19:17:58.940Z,8.60
2019-04-07T19:20:51.660Z,9.20
2019-04-07T19:23:45.149Z,8.33
2019-04-07T19:26:41.069Z,8.87
2019-04-07T19:29:27.169Z,9.47
2019-04-07T19:32:21.383Z,10.40
2019-04-07T19:35:11.547Z,9.83
2019-04-07T19:38:12.236Z,9.47
2019-04-07T19:41:20.197Z,8.93
2019-04-07T19:44:15.456Z,8.37
2019-04-07T19:47:06.736Z,9.27
2019-04-07T19:50:05.548Z,9.37
2019-04-07T19:53:06.020Z,7.73
2019-04-07T19:55:56.851Z,10.30
2019-04-07T19:58:43.476Z,10.20
2019-04-07T20:01:31.832Z,10.77
2019-04-07T20:04:20.824Z,9.40
2019-04-07T20:07:07.997Z,9.57
2019-04-07T20:10:16.424Z,9.13
2019-04-07T20:12:54.167Z,8.33
2019-04-07T20:15:58.079Z,9.50
2019-04-07T20:18:51.425Z,11.10
2019-04-07T20:21:41.436Z,13.53
2019-04-07T20:24:27.395Z,13.50
2019-04-07T20:27:11.054Z,13.43
2019-04-07T20:29:59.115Z,12.67
2019-04-07T20:32:44.813Z,12.63
2019-04-07T20:35:39.278Z,11.60
2019-04-07T20:38:28.401Z,12.27
2019-04-07T20:41:21.721Z,10.03
2019-04-07T20:44:11.313Z,9.57
2019-04-07T20:47:07.886Z,10.13
2019-04-07T20:50:02.676Z,11.20
2019-04-07T20:52:53.476Z,11.63
2019-04-07T20:55:58.271Z,10.03
2019-04-07T20:58:46.491Z,10.20
2019-04-07T21:01:59.451Z,12.20
2019-04-07T21:04:37.499Z,11.60
2019-04-07T21:07:29.832Z,10.83
2019-04-07T21:10:19.344Z,9.50
2019-04-07T21:13:00.263Z,9.93
2019-04-07T21:15:48.447Z,9.67
2019-04-07T21:18:39.118Z,9.60
2019-04-07T21:21:32.391Z,10.30
2019-04-07T21:24:19.647Z,10.57
2019-04-07T21:27:14.530Z,10.77
2019-04-07T21:30:02.918Z,10.37
2019-04-07T21:32:58.232Z,9.20
2019-04-07T21:35:48.788Z,8.80
2019-04-07T21:38:39.136Z,9.77
2019-04-07T21:41:24.342Z,9.10
2019-04-07T21:44:28.537Z,8.47
2019-04-07T21:47:33.137Z,10.40
2019-04-07T21:50:24.581Z,9.60
2019-04-07T21:53:12.203Z,9.33
2019-04-07T21:55:56.002Z,9.57
2019-04-07T21:58:45.450Z,9.70
2019-04-07T22:01:41.390Z,9.43
2019-04-07T22:04:34.116Z,8.87
2019-04-07T22:07:33.506Z,9.33
2019-04-07T22:10:05.986Z,8.07
2019-04-07T22:12:37.845Z,9.27
2019-04-07T22:15:12.797Z,9.70
2019-04-07T22:17:43.659Z,9.37
2019-04-07T22:20:18.794Z,9.47
2019-04-07T22:22:47.326Z,9.40
2019-04-07T22:25:28.788Z,8.40
2019-04-07T22:27:59.629Z,9.23
2019-04-07T22:30:30.639Z,8.90
2019-04-07T22:33:01.930Z,10.77
2019-04-07T22:35:36.457Z,8.97
2019-04-07T22:38:05.779Z,9.30
2019-04-07T22:40:38.977Z,10.50
2019-04-07T22:43:09.301Z,8.90
2019-04-07T22:45:40.169Z,9.67
2019-04-07T22:48:10.813Z,9.57
2019-04-07T22:50:41.356Z,9.77
2019-04-07T22:53:11.804Z,7.40
2019-04-07T22:55:42.283Z,9.20
2019-04-07T22:58:13.682Z,9.03
2019-04-07T23:00:46.577Z,9.13
2019-04-07T23:03:18.039Z,9.43
2019-04-07T23:05:49.150Z,8.57
2019-04-07T23:08:20.839Z,9.00
2019-04-07T23:10:51.327Z,9.93
2019-04-07T23:13:21.893Z,7.83
2019-04-07T23:16:06.739Z,8.70
2019-04-07T23:18:26.279Z,9.20
2019-04-07T23:20:57.248Z,8.10
2019-04-07T23:23:28.137Z,8.00
2019-04-07T23:25:59.886Z,7.10
2019-04-07T23:28:30.645Z,7.37
2019-04-07T23:31:01.608Z,7.10
2019-04-07T23:33:32.099Z,7.50
2019-04-07T23:36:02.635Z,6.97
2019-04-07T23:38:34.700Z,6.77
2019-04-07T23:41:05.776Z,8.47
2019-04-07T23:43:36.244Z,8.70
2019-04-07T23:46:18.763Z,7.63
2019-04-07T23:48:38.971Z,8.93
2019-04-07T23:51:10.251Z,9.00
2019-04-07T23:54:10.726Z,8.87
2019-04-07T23:56:43.674Z,7.73
2019-04-07T23:59:15.231Z,7.70
